createdAt,value
2018-05-13T00:00:18.290Z,72.10
2018-05-13T00:02:50.513Z,72.70
2018-05-13T00:05:22.490Z,72.40
2018-05-13T00:07:54.642Z,72.30
2018-05-13T00:10:26.551Z,72.20
2018-05-13T00:12:58.453Z,71.70
2018-05-13T00:15:31.190Z,71.80
2018-05-13T00:18:03.096Z,71.80
2018-05-13T00:20:36.097Z,69.30
2018-05-13T00:23:07.994Z,69.30
2018-05-13T00:25:39.877Z,68.00
2018-05-13T00:28:11.753Z,68.20
2018-05-13T00:30:44.553Z,67.60
2018-05-13T00:33:17.221Z,66.70
2018-05-13T00:35:50.218Z,66.40
2018-05-13T00:38:22.386Z,66.40
2018-05-13T00:40:54.266Z,66.30
2018-05-13T00:43:26.410Z,65.90
2018-05-13T00:45:58.577Z,65.30
2018-05-13T00:48:30.466Z,65.30
2018-05-13T00:51:02.343Z,65.30
2018-05-13T00:53:34.301Z,65.50
2018-05-13T00:56:06.176Z,65.40
2018-05-13T00:58:38.125Z,65.20
2018-05-13T01:01:10.349Z,64.80
2018-05-13T01:03:42.250Z,65.00
2018-05-13T01:06:14.123Z,65.00
2018-05-13T01:08:46.068Z,65.20
2018-05-13T01:11:18.200Z,65.00
2018-05-13T01:13:50.362Z,64.80
2018-05-13T01:16:22.230Z,64.70
2018-05-13T01:18:54.389Z,65.00
2018-05-13T01:21:26.274Z,64.60
2018-05-13T01:23:58.157Z,64.40
2018-05-13T01:26:30.818Z,64.30
2018-05-13T01:29:02.713Z,64.30
2018-05-13T01:31:34.607Z,64.10
2018-05-13T01:34:07.273Z,64.60
2018-05-13T01:36:39.923Z,64.90
2018-05-13T01:39:11.833Z,64.90
2018-05-13T01:41:43.722Z,64.90
2018-05-13T01:44:15.609Z,65.40
2018-05-13T01:46:47.561Z,65.50
2018-05-13T01:49:19.519Z,65.80
2018-05-13T01:51:51.396Z,65.70
2018-05-13T01:54:23.345Z,66.10
2018-05-13T01:56:55.321Z,66.00
2018-05-13T01:59:27.267Z,66.10
2018-05-13T02:01:59.244Z,66.40
2018-05-13T02:04:31.247Z,66.60
2018-05-13T02:07:03.130Z,66.60
2018-05-13T02:09:35.017Z,66.80
2018-05-13T02:12:06.983Z,66.90
2018-05-13T02:14:38.873Z,67.10
2018-05-13T02:17:11.773Z,67.50
2018-05-13T02:19:43.696Z,67.50
2018-05-13T02:22:17.186Z,67.60
2018-05-13T02:24:49.069Z,67.60
2018-05-13T02:27:21.713Z,67.70
2018-05-13T02:29:53.686Z,67.70
2018-05-13T02:32:25.565Z,67.70
2018-05-13T02:34:57.763Z,67.90
2018-05-13T02:37:29.650Z,68.00
2018-05-13T02:40:01.550Z,68.00
2018-05-13T02:42:33.503Z,68.50
2018-05-13T02:45:05.450Z,68.70
2018-05-13T02:47:37.329Z,69.00
2018-05-13T02:50:10.090Z,69.30
2018-05-13T02:52:42.047Z,69.20
2018-05-13T02:55:14.171Z,69.20
2018-05-13T02:57:46.072Z,69.30
2018-05-13T03:00:18.363Z,69.10
2018-05-13T03:02:50.233Z,69.10
2018-05-13T03:05:22.179Z,69.20
2018-05-13T03:07:54.064Z,69.20
2018-05-13T03:10:26.726Z,69.60
2018-05-13T03:12:58.661Z,69.60
2018-05-13T03:15:30.575Z,69.70
2018-05-13T03:18:03.317Z,76.20
2018-05-13T03:20:35.232Z,76.20
2018-05-13T03:23:07.105Z,78.20
2018-05-13T03:25:39.013Z,78.50
2018-05-13T03:28:10.886Z,81.40
2018-05-13T03:30:43.889Z,83.10
2018-05-13T03:33:16.136Z,83.10
2018-05-13T03:35:48.325Z,85.00
2018-05-13T03:38:20.209Z,85.90
2018-05-13T03:40:52.114Z,87.70
2018-05-13T03:43:24.324Z,88.00
2018-05-13T03:45:56.214Z,88.30
2018-05-13T03:48:28.193Z,89.70
2018-05-13T03:51:00.101Z,90.20
2018-05-13T03:53:31.978Z,90.10
2018-05-13T03:56:03.961Z,89.20
2018-05-13T03:58:35.909Z,90.40
2018-05-13T04:01:08.154Z,91.10
2018-05-13T04:03:40.021Z,90.70
2018-05-13T04:06:12.176Z,90.70
2018-05-13T04:08:55.933Z,90.50
2018-05-13T04:14:44.853Z,90.50
2018-05-13T04:17:16.742Z,90.40
2018-05-13T04:19:49.385Z,91.10
2018-05-13T04:22:21.598Z,91.10
2018-05-13T04:24:53.469Z,91.00
2018-05-13T04:27:25.368Z,91.20
2018-05-13T04:29:57.245Z,91.10
2018-05-13T04:32:29.445Z,90.70
2018-05-13T04:35:01.318Z,90.40
2018-05-13T04:37:33.193Z,90.20
2018-05-13T04:40:05.077Z,90.30
2018-05-13T04:42:36.958Z,90.20
2018-05-13T04:45:09.155Z,90.20
2018-05-13T04:47:41.093Z,90.00
2018-05-13T04:50:14.716Z,89.40
2018-05-13T04:52:47.377Z,88.80
2018-05-13T04:55:20.019Z,88.30
2018-05-13T04:57:51.910Z,88.10
2018-05-13T05:00:24.550Z,87.80
2018-05-13T05:02:56.454Z,87.70
2018-05-13T05:05:29.089Z,86.20
2018-05-13T05:08:00.990Z,86.10
2018-05-13T05:10:33.182Z,86.50
2018-05-13T05:13:05.101Z,86.50
2018-05-13T05:15:36.981Z,86.10
2018-05-13T05:18:09.657Z,85.30
2018-05-13T05:20:42.561Z,84.60
2018-05-13T05:23:14.456Z,84.60
2018-05-13T05:25:46.336Z,84.80
2018-05-13T05:28:18.241Z,85.20
2018-05-13T05:30:50.121Z,85.00
2018-05-13T05:33:22.271Z,84.50
2018-05-13T05:35:54.154Z,83.90
2018-05-13T05:38:26.295Z,83.20
2018-05-13T05:40:58.179Z,82.30
2018-05-13T05:43:30.066Z,81.90
2018-05-13T05:46:01.937Z,81.30
2018-05-13T05:48:33.950Z,80.90
2018-05-13T05:51:05.826Z,80.80
2018-05-13T05:53:37.731Z,80.40
2018-05-13T05:56:09.925Z,79.80
2018-05-13T05:58:41.828Z,79.50
2018-05-13T06:01:13.699Z,81.20
2018-05-13T06:03:45.829Z,80.20
2018-05-13T06:06:17.694Z,80.30
2018-05-13T06:08:49.591Z,80.30
2018-05-13T06:11:21.481Z,79.80
2018-05-13T06:13:54.133Z,79.40
2018-05-13T06:16:26.338Z,79.40
2018-05-13T06:18:58.242Z,78.80
2018-05-13T06:21:30.125Z,77.10
2018-05-13T06:24:02.249Z,76.20
2018-05-13T06:26:34.394Z,75.10
2018-05-13T06:29:06.290Z,74.10
2018-05-13T06:31:38.158Z,74.10
2018-05-13T06:34:10.051Z,74.50
2018-05-13T06:36:42.694Z,74.50
2018-05-13T06:39:14.597Z,74.40
2018-05-13T06:41:47.234Z,76.30
2018-05-13T06:44:19.125Z,76.20
2018-05-13T06:46:51.030Z,77.50
2018-05-13T06:49:22.972Z,78.50
2018-05-13T06:51:55.862Z,80.60
2018-05-13T06:54:27.758Z,80.50
2018-05-13T06:56:59.637Z,80.50
2018-05-13T06:59:31.565Z,81.30
2018-05-13T07:02:03.442Z,80.50
2018-05-13T07:04:35.347Z,80.50
2018-05-13T07:07:07.998Z,80.50
2018-05-13T07:09:40.012Z,80.50
2018-05-13T07:12:11.905Z,81.40
2018-05-13T07:14:43.814Z,81.60
2018-05-13T07:17:16.457Z,81.70
2018-05-13T07:19:48.377Z,81.70
2018-05-13T07:22:20.269Z,80.90
2018-05-13T07:24:52.250Z,81.30
2018-05-13T07:27:24.125Z,81.40
2018-05-13T07:29:56.805Z,82.50
2018-05-13T07:32:29.446Z,81.90
2018-05-13T07:35:01.352Z,81.90
2018-05-13T07:37:33.997Z,83.10
2018-05-13T07:40:05.905Z,83.10
2018-05-13T07:42:37.782Z,83.40
2018-05-13T07:45:09.695Z,84.20
2018-05-13T07:47:42.350Z,83.80
2018-05-13T07:50:14.277Z,83.70
2018-05-13T07:52:46.193Z,84.30
2018-05-13T07:55:18.094Z,86.20
2018-05-13T07:57:50.017Z,86.00
2018-05-13T08:00:21.890Z,87.20
2018-05-13T08:02:54.549Z,88.80
2018-05-13T08:05:26.749Z,88.70
2018-05-13T08:07:58.626Z,89.20
2018-05-13T08:10:30.531Z,89.60
2018-05-13T08:13:02.415Z,90.50
2018-05-13T08:15:35.093Z,91.30
2018-05-13T08:18:07.752Z,91.20
2018-05-13T08:20:39.662Z,91.20
2018-05-13T08:23:11.549Z,91.80
2018-05-13T08:25:44.231Z,91.70
2018-05-13T08:28:16.114Z,91.70
2018-05-13T08:30:48.007Z,92.10
2018-05-13T08:33:20.645Z,92.70
2018-05-13T08:35:52.650Z,92.70
2018-05-13T08:38:25.293Z,93.30
2018-05-13T08:40:57.242Z,93.20
2018-05-13T08:43:29.359Z,93.20
2018-05-13T08:46:01.345Z,93.60
2018-05-13T08:48:33.501Z,93.40
2018-05-13T08:51:05.393Z,92.90
2018-05-13T08:53:37.293Z,92.10
2018-05-13T08:56:09.957Z,92.10
2018-05-13T08:58:41.829Z,92.10
2018-05-13T09:01:14.500Z,91.60
2018-05-13T09:03:47.156Z,92.00
2018-05-13T09:06:19.057Z,91.80
2018-05-13T09:08:50.933Z,92.30
2018-05-13T09:11:23.059Z,92.10
2018-05-13T09:13:54.942Z,92.00
2018-05-13T09:16:27.613Z,91.40
2018-05-13T09:19:00.259Z,92.10
2018-05-13T09:21:32.159Z,92.00
2018-05-13T09:24:04.793Z,91.20
2018-05-13T09:26:36.776Z,91.20
2018-05-13T09:29:08.870Z,91.40
2018-05-13T09:31:41.033Z,91.30
2018-05-13T09:34:12.909Z,91.80
2018-05-13T09:36:44.819Z,91.10
2018-05-13T09:39:16.689Z,91.50
2018-05-13T09:41:48.602Z,91.60
2018-05-13T09:44:20.483Z,92.50
2018-05-13T09:46:53.423Z,92.60
2018-05-13T09:49:25.298Z,92.50
2018-05-13T09:51:57.207Z,91.90
2018-05-13T09:54:29.409Z,92.20
2018-05-13T09:57:01.322Z,92.40
2018-05-13T09:59:33.197Z,92.80
2018-05-13T10:02:05.401Z,92.90
2018-05-13T10:04:37.566Z,92.90
2018-05-13T10:07:09.468Z,93.00
2018-05-13T10:09:41.591Z,92.80
2018-05-13T10:12:13.501Z,92.80
2018-05-13T10:14:46.186Z,93.40
2018-05-13T10:17:18.397Z,93.40
2018-05-13T10:19:50.486Z,93.20
2018-05-13T10:22:22.380Z,93.50
2018-05-13T10:24:54.331Z,93.30
2018-05-13T10:27:26.295Z,93.50
2018-05-13T10:29:58.169Z,93.30
2018-05-13T10:32:30.074Z,93.40
2018-05-13T10:35:01.946Z,93.90
2018-05-13T10:37:33.925Z,93.90
2018-05-13T10:40:05.826Z,93.90
2018-05-13T10:42:38.497Z,93.10
2018-05-13T10:45:11.162Z,93.80
2018-05-13T10:47:43.073Z,93.50
2018-05-13T10:50:14.961Z,93.30
2018-05-13T10:52:46.888Z,93.90
2018-05-13T10:55:19.057Z,94.10
2018-05-13T10:57:51.017Z,94.10
2018-05-13T11:00:22.826Z,93.20
2018-05-13T11:02:54.726Z,93.40
2018-05-13T11:05:27.369Z,92.90
2018-05-13T11:07:59.270Z,92.80
2018-05-13T11:10:31.913Z,92.80
2018-05-13T11:13:04.130Z,92.80
2018-05-13T11:15:36.001Z,92.90
2018-05-13T11:18:07.898Z,92.40
2018-05-13T11:20:39.812Z,92.40
2018-05-13T11:23:12.441Z,92.80
2018-05-13T11:25:44.321Z,92.80
2018-05-13T11:28:16.976Z,92.30
2018-05-13T11:30:48.855Z,92.30
2018-05-13T11:33:20.761Z,93.00
2018-05-13T11:35:52.639Z,92.90
2018-05-13T11:38:24.598Z,93.00
2018-05-13T11:40:56.465Z,93.00
2018-05-13T11:43:28.356Z,93.50
2018-05-13T11:46:00.229Z,93.40
2018-05-13T11:48:32.905Z,93.70
2018-05-13T11:51:05.548Z,93.80
2018-05-13T11:53:37.468Z,93.80
2018-05-13T11:56:09.345Z,94.40
2018-05-13T11:58:41.278Z,94.40
2018-05-13T12:01:13.162Z,93.90
2018-05-13T12:03:45.051Z,94.00
2018-05-13T12:06:16.942Z,94.40
2018-05-13T12:08:48.858Z,94.40
2018-05-13T12:11:20.749Z,94.70
2018-05-13T12:13:52.659Z,95.10
2018-05-13T12:16:24.526Z,94.50
2018-05-13T12:18:56.408Z,94.80
2018-05-13T12:21:28.296Z,94.50
2018-05-13T12:24:00.207Z,95.10
2018-05-13T12:26:32.086Z,94.80
2018-05-13T12:29:04.002Z,94.60
2018-05-13T12:31:35.912Z,94.50
2018-05-13T12:34:07.787Z,95.10
2018-05-13T12:36:39.658Z,94.70
2018-05-13T12:39:11.565Z,94.80
2018-05-13T12:41:43.565Z,95.30
2018-05-13T12:44:15.452Z,95.20
2018-05-13T12:46:48.102Z,94.90
2018-05-13T12:49:20.317Z,94.90
2018-05-13T12:51:53.333Z,94.90
2018-05-13T12:54:25.245Z,95.20
2018-05-13T12:56:57.874Z,95.20
2018-05-13T12:59:30.022Z,95.20
2018-05-13T13:02:01.898Z,95.50
2018-05-13T13:04:33.803Z,94.60
2018-05-13T13:07:05.669Z,94.90
2018-05-13T13:09:38.570Z,94.70
2018-05-13T13:12:10.450Z,94.70
2018-05-13T13:14:42.357Z,95.00
2018-05-13T13:17:14.453Z,95.50
2018-05-13T13:19:46.359Z,95.30
2018-05-13T13:22:18.249Z,94.70
2018-05-13T13:24:50.161Z,95.20
2018-05-13T13:27:22.076Z,95.00
2018-05-13T13:29:54.757Z,95.20
2018-05-13T13:32:27.398Z,95.30
2018-05-13T13:34:59.624Z,95.30
2018-05-13T13:37:31.502Z,95.10
2018-05-13T13:40:03.389Z,95.00
2018-05-13T13:42:35.275Z,95.10
2018-05-13T13:45:07.942Z,95.20
2018-05-13T13:47:40.048Z,95.20
2018-05-13T13:50:11.945Z,94.70
2018-05-13T13:52:43.826Z,95.20
2018-05-13T13:55:16.573Z,95.00
2018-05-13T13:57:48.446Z,95.20
2018-05-13T14:00:20.380Z,95.30
2018-05-13T14:02:52.241Z,95.50
2018-05-13T14:05:24.395Z,95.60
2018-05-13T14:07:56.270Z,95.50
2018-05-13T14:10:28.192Z,95.60
2018-05-13T14:13:00.178Z,96.10
2018-05-13T14:15:32.073Z,96.40
2018-05-13T14:18:03.965Z,96.20
2018-05-13T14:20:35.934Z,96.50
2018-05-13T14:23:07.737Z,96.60
2018-05-13T14:25:39.654Z,97.00
2018-05-13T14:28:11.529Z,96.50
2018-05-13T14:30:44.178Z,96.30
2018-05-13T14:33:16.154Z,96.40
2018-05-13T14:35:48.351Z,96.30
2018-05-13T14:38:23.048Z,96.40
2018-05-13T14:40:55.141Z,96.30
2018-05-13T14:43:26.838Z,96.00
2018-05-13T14:45:58.756Z,95.80
2018-05-13T14:48:31.432Z,96.10
2018-05-13T14:51:04.117Z,98.00
2018-05-13T14:53:36.001Z,97.70
2018-05-13T14:56:07.917Z,98.30
2018-05-13T14:58:39.782Z,95.90
2018-05-13T15:01:12.442Z,95.80
2018-05-13T15:03:44.314Z,95.80
2018-05-13T15:06:17.326Z,96.30
2018-05-13T15:08:49.492Z,96.30
2018-05-13T15:11:21.399Z,96.20
2018-05-13T15:13:53.272Z,96.10
2018-05-13T15:16:25.478Z,96.00
2018-05-13T15:18:57.355Z,96.10
2018-05-13T15:21:29.281Z,96.30
2018-05-13T15:24:01.916Z,97.00
2018-05-13T15:26:33.809Z,96.20
2018-05-13T15:29:07.239Z,96.20
2018-05-13T15:31:39.106Z,96.40
2018-05-13T15:34:11.257Z,95.90
2018-05-13T15:36:43.158Z,95.90
2018-05-13T15:39:15.033Z,95.90
2018-05-13T15:41:46.959Z,96.30
2018-05-13T15:44:18.836Z,96.80
2018-05-13T15:46:50.738Z,97.80
2018-05-13T15:49:23.426Z,96.30
2018-05-13T15:51:56.093Z,96.40
2018-05-13T15:54:28.740Z,96.60
2018-05-13T15:57:00.634Z,96.60
2018-05-13T15:59:34.038Z,96.10
2018-05-13T16:02:06.701Z,96.40
2018-05-13T16:04:38.589Z,96.40
2018-05-13T16:07:10.486Z,96.40
2018-05-13T16:09:42.620Z,96.30
2018-05-13T16:12:14.839Z,96.40
2018-05-13T16:14:46.948Z,96.30
2018-05-13T16:17:19.114Z,96.40
2018-05-13T16:19:51.014Z,96.30
2018-05-13T16:22:22.931Z,96.50
2018-05-13T16:24:55.565Z,96.70
2018-05-13T16:27:27.483Z,96.70
2018-05-13T16:29:59.413Z,96.30
2018-05-13T16:32:31.502Z,96.50
2018-05-13T16:35:03.381Z,96.30
2018-05-13T16:37:35.531Z,96.60
2018-05-13T16:40:07.406Z,96.60
2018-05-13T16:42:39.347Z,96.50
2018-05-13T16:45:11.985Z,96.50
2018-05-13T16:47:43.882Z,96.40
2018-05-13T16:50:15.774Z,96.40
2018-05-13T16:52:47.877Z,96.20
2018-05-13T16:55:19.761Z,96.30
2018-05-13T16:57:52.439Z,96.70
2018-05-13T17:00:25.142Z,96.70
2018-05-13T17:02:57.299Z,96.70
2018-05-13T17:05:29.173Z,96.50
2018-05-13T17:08:01.073Z,96.50
2018-05-13T17:10:33.184Z,96.30
2018-05-13T17:13:05.099Z,96.40
2018-05-13T17:15:36.972Z,96.40
2018-05-13T17:18:09.066Z,96.50
2018-05-13T17:20:40.990Z,96.40
2018-05-13T17:23:12.893Z,96.50
2018-05-13T17:25:44.788Z,96.40
2018-05-13T17:28:16.701Z,96.50
2018-05-13T17:30:49.338Z,96.80
2018-05-13T17:33:21.237Z,96.80
2018-05-13T17:35:53.873Z,96.90
2018-05-13T17:38:25.774Z,96.90
2018-05-13T17:40:58.416Z,97.10
2018-05-13T17:43:30.302Z,97.10
2018-05-13T17:46:02.169Z,97.00
2018-05-13T17:48:34.834Z,97.20
2018-05-13T17:51:06.713Z,97.10
2018-05-13T17:53:39.447Z,97.10
2018-05-13T17:56:12.121Z,97.00
2018-05-13T17:58:44.106Z,97.00
2018-05-13T18:01:15.982Z,97.10
2018-05-13T18:03:47.894Z,96.70
2018-05-13T18:06:20.034Z,96.70
2018-05-13T18:08:51.959Z,96.90
2018-05-13T18:11:23.838Z,96.80
2018-05-13T18:13:56.500Z,96.80
2018-05-13T18:16:28.370Z,96.80
2018-05-13T18:19:01.050Z,96.90
2018-05-13T18:21:33.791Z,96.60
2018-05-13T18:24:05.918Z,96.60
2018-05-13T18:26:37.797Z,96.80
2018-05-13T18:29:09.815Z,97.00
2018-05-13T18:31:41.697Z,96.90
2018-05-13T18:34:14.366Z,96.90
2018-05-13T18:36:47.012Z,96.90
2018-05-13T18:39:18.940Z,96.90
2018-05-13T18:41:51.546Z,97.00
2018-05-13T18:44:23.451Z,96.90
2018-05-13T18:46:56.341Z,97.10
2018-05-13T18:49:28.234Z,97.10
2018-05-13T18:52:00.108Z,97.10
2018-05-13T18:54:32.029Z,97.20
2018-05-13T18:57:03.907Z,97.10
2018-05-13T18:59:35.823Z,97.00
2018-05-13T19:02:08.474Z,97.00
2018-05-13T19:04:40.380Z,97.20
2018-05-13T19:07:13.020Z,96.90
2018-05-13T19:09:44.913Z,96.90
2018-05-13T19:12:17.584Z,97.10
2018-05-13T19:14:49.479Z,97.10
2018-05-13T19:17:21.354Z,97.00
2018-05-13T19:19:53.258Z,97.00
2018-05-13T19:22:25.468Z,97.10
2018-05-13T19:24:57.357Z,97.10
2018-05-13T19:27:29.249Z,97.20
2018-05-13T19:30:01.945Z,97.10
2018-05-13T19:32:34.569Z,97.00
2018-05-13T19:35:06.794Z,97.00
2018-05-13T19:37:38.673Z,96.90
2018-05-13T19:40:10.562Z,96.90
2018-05-13T19:42:42.442Z,97.10
2018-05-13T19:45:14.358Z,97.10
2018-05-13T19:47:46.502Z,97.20
2018-05-13T19:50:18.665Z,97.30
2018-05-13T19:52:50.564Z,97.20
2018-05-13T19:55:22.458Z,97.30
2018-05-13T19:57:54.655Z,97.20
2018-05-13T20:00:26.573Z,97.30
2018-05-13T20:02:58.537Z,96.80
2018-05-13T20:05:31.131Z,96.70
2018-05-13T20:08:03.011Z,96.70
2018-05-13T20:10:35.694Z,96.60
2018-05-13T20:13:07.582Z,96.60
2018-05-13T20:15:39.485Z,96.40
2018-05-13T20:18:11.407Z,96.40
2018-05-13T20:20:43.321Z,96.30
2018-05-13T20:23:24.067Z,96.20
2018-05-13T20:25:56.662Z,96.70
2018-05-13T20:28:29.566Z,96.40
